sensor_id;sensor_type;location;lat;lon;timestamp;P1;durP1;ratioP1;P2;durP2;ratioP2
64244;SDS011;50584;29.058;-110.966;2022-08-21T00:02:03;2.60;;;2.40;;
64244;SDS011;50584;29.058;-110.966;2022-08-21T00:04:30;4.38;;;2.85;;
64244;SDS011;50584;29.058;-110.966;2022-08-21T00:06:56;2.55;;;2.35;;
64244;SDS011;50584;29.058;-110.966;2022-08-21T00:09:23;3.72;;;2.45;;
64244;SDS011;50584;29.058;-110.966;2022-08-21T00:11:49;3.55;;;2.75;;
64244;SDS011;50584;29.058;-110.966;2022-08-21T00:14:15;4.78;;;3.00;;
64244;SDS011;50584;29.058;-110.966;2022-08-21T00:16:41;4.05;;;3.10;;
64244;SDS011;50584;29.058;-110.966;2022-08-21T00:19:07;6.30;;;2.60;;
64244;SDS011;50584;29.058;-110.966;2022-08-21T00:21:34;3.47;;;2.50;;
64244;SDS011;50584;29.058;-110.966;2022-08-21T00:24:00;4.20;;;2.40;;
64244;SDS011;50584;29.058;-110.966;2022-08-21T00:26:26;3.67;;;2.50;;
64244;SDS011;50584;29.058;-110.966;2022-08-21T00:28:52;3.08;;;2.30;;
64244;SDS011;50584;29.058;-110.966;2022-08-21T00:31:18;3.28;;;2.80;;
64244;SDS011;50584;29.058;-110.966;2022-08-21T00:33:44;2.67;;;2.40;;
64244;SDS011;50584;29.058;-110.966;2022-08-21T00:36:10;5.10;;;2.60;;
64244;SDS011;50584;29.058;-110.966;2022-08-21T00:38:36;3.63;;;2.42;;
64244;SDS011;50584;29.058;-110.966;2022-08-21T00:41:04;4.75;;;2.63;;
64244;SDS011;50584;29.058;-110.966;2022-08-21T00:43:31;4.13;;;2.42;;
64244;SDS011;50584;29.058;-110.966;2022-08-21T00:45:59;4.10;;;2.50;;
64244;SDS011;50584;29.058;-110.966;2022-08-21T00:48:25;2.92;;;2.72;;
64244;SDS011;50584;29.058;-110.966;2022-08-21T00:53:19;4.25;;;2.80;;
64244;SDS011;50584;29.058;-110.966;2022-08-21T00:55:45;6.05;;;2.70;;
64244;SDS011;50584;29.058;-110.966;2022-08-21T00:58:12;7.30;;;2.70;;
64244;SDS011;50584;29.058;-110.966;2022-08-21T01:00:39;2.78;;;2.45;;
64244;SDS011;50584;29.058;-110.966;2022-08-21T01:03:07;4.05;;;2.55;;
64244;SDS011;50584;29.058;-110.966;2022-08-21T01:05:33;4.60;;;2.63;;
64244;SDS011;50584;29.058;-110.966;2022-08-21T01:07:59;2.92;;;2.50;;
64244;SDS011;50584;29.058;-110.966;2022-08-21T01:10:25;2.97;;;2.35;;
64244;SDS011;50584;29.058;-110.966;2022-08-21T01:12:52;4.80;;;2.58;;
64244;SDS011;50584;29.058;-110.966;2022-08-21T01:15:18;3.95;;;2.72;;
64244;SDS011;50584;29.058;-110.966;2022-08-21T01:17:45;4.53;;;2.90;;
64244;SDS011;50584;29.058;-110.966;2022-08-21T01:20:11;3.03;;;2.83;;
64244;SDS011;50584;29.058;-110.966;2022-08-21T01:22:38;3.72;;;2.75;;
64244;SDS011;50584;29.058;-110.966;2022-08-21T01:25:04;5.90;;;2.85;;
64244;SDS011;50584;29.058;-110.966;2022-08-21T01:27:31;4.32;;;2.72;;
64244;SDS011;50584;29.058;-110.966;2022-08-21T01:29:59;5.22;;;2.55;;
64244;SDS011;50584;29.058;-110.966;2022-08-21T01:32:26;4.53;;;2.90;;
64244;SDS011;50584;29.058;-110.966;2022-08-21T01:34:52;5.10;;;2.90;;
64244;SDS011;50584;29.058;-110.966;2022-08-21T01:37:19;5.47;;;2.90;;
64244;SDS011;50584;29.058;-110.966;2022-08-21T01:39:45;3.47;;;2.85;;
64244;SDS011;50584;29.058;-110.966;2022-08-21T01:42:11;4.32;;;2.90;;
64244;SDS011;50584;29.058;-110.966;2022-08-21T01:44:37;4.75;;;2.92;;
64244;SDS011;50584;29.058;-110.966;2022-08-21T01:47:04;4.13;;;2.55;;
64244;SDS011;50584;29.058;-110.966;2022-08-21T01:49:30;6.35;;;3.00;;
64244;SDS011;50584;29.058;-110.966;2022-08-21T01:51:56;4.55;;;2.55;;
64244;SDS011;50584;29.058;-110.966;2022-08-21T01:54:22;3.63;;;3.25;;
64244;SDS011;50584;29.058;-110.966;2022-08-21T01:56:49;3.58;;;3.28;;
64244;SDS011;50584;29.058;-110.966;2022-08-21T01:59:16;6.40;;;4.28;;
64244;SDS011;50584;29.058;-110.966;2022-08-21T02:01:41;3.63;;;3.33;;
64244;SDS011;50584;29.058;-110.966;2022-08-21T02:04:09;7.50;;;2.80;;
64244;SDS011;50584;29.058;-110.966;2022-08-21T02:06:35;3.78;;;3.03;;
64244;SDS011;50584;29.058;-110.966;2022-08-21T02:09:03;6.60;;;2.97;;
64244;SDS011;50584;29.058;-110.966;2022-08-21T02:11:30;5.63;;;2.83;;
64244;SDS011;50584;29.058;-110.966;2022-08-21T02:13:56;6.55;;;3.00;;
64244;SDS011;50584;29.058;-110.966;2022-08-21T02:16:22;6.05;;;3.10;;
64244;SDS011;50584;29.058;-110.966;2022-08-21T02:18:48;2.95;;;2.53;;
64244;SDS011;50584;29.058;-110.966;2022-08-21T02:21:14;7.15;;;2.70;;
64244;SDS011;50584;29.058;-110.966;2022-08-21T02:23:40;4.45;;;2.65;;
64244;SDS011;50584;29.058;-110.966;2022-08-21T02:26:06;5.35;;;2.80;;
64244;SDS011;50584;29.058;-110.966;2022-08-21T02:28:32;2.85;;;2.47;;
64244;SDS011;50584;29.058;-110.966;2022-08-21T02:30:58;3.10;;;2.67;;
64244;SDS011;50584;29.058;-110.966;2022-08-21T02:33:24;5.43;;;2.83;;
64244;SDS011;50584;29.058;-110.966;2022-08-21T02:35:51;5.47;;;2.63;;
64244;SDS011;50584;29.058;-110.966;2022-08-21T02:38:19;4.85;;;2.50;;
64244;SDS011;50584;29.058;-110.966;2022-08-21T02:40:46;13.50;;;3.00;;
64244;SDS011;50584;29.058;-110.966;2022-08-21T02:43:12;5.28;;;2.50;;
64244;SDS011;50584;29.058;-110.966;2022-08-21T02:45:38;4.63;;;3.10;;
64244;SDS011;50584;29.058;-110.966;2022-08-21T02:48:06;3.85;;;3.15;;
64244;SDS011;50584;29.058;-110.966;2022-08-21T02:50:34;3.88;;;2.97;;
64244;SDS011;50584;29.058;-110.966;2022-08-21T02:53:00;5.32;;;3.00;;
64244;SDS011;50584;29.058;-110.966;2022-08-21T02:55:27;4.90;;;3.10;;
64244;SDS011;50584;29.058;-110.966;2022-08-21T02:57:53;4.70;;;3.15;;
64244;SDS011;50584;29.058;-110.966;2022-08-21T03:00:20;4.88;;;3.78;;
64244;SDS011;50584;29.058;-110.966;2022-08-21T03:02:47;5.50;;;3.40;;
64244;SDS011;50584;29.058;-110.966;2022-08-21T03:05:13;11.25;;;3.33;;
64244;SDS011;50584;29.058;-110.966;2022-08-21T03:07:40;5.13;;;2.65;;
64244;SDS011;50584;29.058;-110.966;2022-08-21T03:10:07;6.57;;;2.63;;
64244;SDS011;50584;29.058;-110.966;2022-08-21T03:12:33;3.40;;;2.67;;
64244;SDS011;50584;29.058;-110.966;2022-08-21T03:15:01;5.03;;;3.08;;
64244;SDS011;50584;29.058;-110.966;2022-08-21T03:17:27;7.55;;;2.97;;
64244;SDS011;50584;29.058;-110.966;2022-08-21T03:19:52;3.65;;;2.80;;
64244;SDS011;50584;29.058;-110.966;2022-08-21T03:22:18;5.68;;;3.05;;
64244;SDS011;50584;29.058;-110.966;2022-08-21T03:24:44;6.38;;;2.83;;
64244;SDS011;50584;29.058;-110.966;2022-08-21T03:27:10;5.88;;;2.83;;
64244;SDS011;50584;29.058;-110.966;2022-08-21T03:29:37;7.63;;;3.10;;
64244;SDS011;50584;29.058;-110.966;2022-08-21T03:32:03;4.50;;;2.53;;
64244;SDS011;50584;29.058;-110.966;2022-08-21T03:34:29;3.35;;;3.05;;
64244;SDS011;50584;29.058;-110.966;2022-08-21T03:36:55;4.65;;;2.40;;
64244;SDS011;50584;29.058;-110.966;2022-08-21T03:39:21;6.28;;;2.47;;
64244;SDS011;50584;29.058;-110.966;2022-08-21T03:41:47;5.15;;;2.45;;
64244;SDS011;50584;29.058;-110.966;2022-08-21T03:44:13;3.47;;;2.35;;
64244;SDS011;50584;29.058;-110.966;2022-08-21T03:46:39;5.13;;;2.60;;
64244;SDS011;50584;29.058;-110.966;2022-08-21T03:49:05;3.60;;;2.47;;
64244;SDS011;50584;29.058;-110.966;2022-08-21T03:51:31;4.53;;;2.40;;
64244;SDS011;50584;29.058;-110.966;2022-08-21T03:53:58;4.88;;;2.65;;
64244;SDS011;50584;29.058;-110.966;2022-08-21T03:56:24;7.60;;;2.70;;
64244;SDS011;50584;29.058;-110.966;2022-08-21T03:58:50;3.30;;;2.58;;
64244;SDS011;50584;29.058;-110.966;2022-08-21T04:01:16;3.92;;;3.38;;
64244;SDS011;50584;29.058;-110.966;2022-08-21T04:03:42;6.68;;;2.88;;
64244;SDS011;50584;29.058;-110.966;2022-08-21T04:06:07;4.68;;;2.70;;
64244;SDS011;50584;29.058;-110.966;2022-08-21T04:08:33;4.57;;;3.40;;
64244;SDS011;50584;29.058;-110.966;2022-08-21T04:11:00;3.65;;;3.00;;
64244;SDS011;50584;29.058;-110.966;2022-08-21T04:13:26;4.32;;;3.00;;
64244;SDS011;50584;29.058;-110.966;2022-08-21T04:15:53;4.55;;;3.50;;
64244;SDS011;50584;29.058;-110.966;2022-08-21T04:18:19;6.45;;;3.70;;
64244;SDS011;50584;29.058;-110.966;2022-08-21T04:20:46;4.75;;;2.85;;
64244;SDS011;50584;29.058;-110.966;2022-08-21T04:23:13;6.03;;;2.90;;
64244;SDS011;50584;29.058;-110.966;2022-08-21T04:25:39;4.80;;;3.08;;
64244;SDS011;50584;29.058;-110.966;2022-08-21T04:28:05;6.28;;;3.15;;
64244;SDS011;50584;29.058;-110.966;2022-08-21T04:30:30;6.10;;;3.20;;
64244;SDS011;50584;29.058;-110.966;2022-08-21T04:32:56;4.53;;;2.92;;
64244;SDS011;50584;29.058;-110.966;2022-08-21T04:35:23;6.57;;;3.00;;
64244;SDS011;50584;29.058;-110.966;2022-08-21T04:37:49;7.65;;;3.33;;
64244;SDS011;50584;29.058;-110.966;2022-08-21T04:40:16;6.22;;;3.47;;
64244;SDS011;50584;29.058;-110.966;2022-08-21T04:42:43;4.63;;;3.60;;
64244;SDS011;50584;29.058;-110.966;2022-08-21T04:45:15;5.47;;;3.22;;
64244;SDS011;50584;29.058;-110.966;2022-08-21T04:47:41;9.77;;;3.70;;
64244;SDS011;50584;29.058;-110.966;2022-08-21T04:50:07;6.97;;;3.10;;
64244;SDS011;50584;29.058;-110.966;2022-08-21T04:52:33;5.80;;;3.20;;
64244;SDS011;50584;29.058;-110.966;2022-08-21T04:54:58;5.57;;;3.28;;
64244;SDS011;50584;29.058;-110.966;2022-08-21T04:57:26;3.70;;;3.40;;
64244;SDS011;50584;29.058;-110.966;2022-08-21T04:59:52;5.82;;;3.90;;
64244;SDS011;50584;29.058;-110.966;2022-08-21T05:02:18;7.97;;;2.92;;
64244;SDS011;50584;29.058;-110.966;2022-08-21T05:04:48;6.50;;;3.05;;
64244;SDS011;50584;29.058;-110.966;2022-08-21T05:09:40;4.18;;;3.20;;
64244;SDS011;50584;29.058;-110.966;2022-08-21T05:12:06;3.40;;;2.70;;
64244;SDS011;50584;29.058;-110.966;2022-08-21T05:14:32;4.00;;;3.13;;
64244;SDS011;50584;29.058;-110.966;2022-08-21T05:16:58;8.80;;;3.10;;
64244;SDS011;50584;29.058;-110.966;2022-08-21T05:19:24;6.10;;;3.22;;
64244;SDS011;50584;29.058;-110.966;2022-08-21T05:21:50;4.45;;;3.03;;
64244;SDS011;50584;29.058;-110.966;2022-08-21T05:24:16;3.30;;;3.00;;
64244;SDS011;50584;29.058;-110.966;2022-08-21T05:26:43;5.70;;;3.25;;
64244;SDS011;50584;29.058;-110.966;2022-08-21T05:29:10;6.10;;;3.40;;
64244;SDS011;50584;29.058;-110.966;2022-08-21T05:31:36;7.00;;;3.20;;
64244;SDS011;50584;29.058;-110.966;2022-08-21T05:34:02;6.88;;;3.13;;
64244;SDS011;50584;29.058;-110.966;2022-08-21T05:36:28;3.75;;;3.22;;
64244;SDS011;50584;29.058;-110.966;2022-08-21T05:38:54;6.97;;;3.10;;
64244;SDS011;50584;29.058;-110.966;2022-08-21T05:41:20;5.82;;;3.10;;
64244;SDS011;50584;29.058;-110.966;2022-08-21T05:43:46;4.75;;;3.13;;
64244;SDS011;50584;29.058;-110.966;2022-08-21T05:46:12;9.55;;;3.28;;
64244;SDS011;50584;29.058;-110.966;2022-08-21T05:48:38;9.05;;;3.70;;
64244;SDS011;50584;29.058;-110.966;2022-08-21T05:51:08;7.45;;;3.30;;
64244;SDS011;50584;29.058;-110.966;2022-08-21T05:53:34;10.50;;;3.47;;
64244;SDS011;50584;29.058;-110.966;2022-08-21T05:56:00;3.28;;;2.88;;
64244;SDS011;50584;29.058;-110.966;2022-08-21T05:58:29;7.25;;;3.67;;
64244;SDS011;50584;29.058;-110.966;2022-08-21T06:00:55;3.88;;;2.80;;
64244;SDS011;50584;29.058;-110.966;2022-08-21T06:03:25;4.78;;;3.10;;
64244;SDS011;50584;29.058;-110.966;2022-08-21T06:05:51;6.72;;;3.40;;
64244;SDS011;50584;29.058;-110.966;2022-08-21T06:08:18;5.20;;;3.67;;
64244;SDS011;50584;29.058;-110.966;2022-08-21T06:10:44;7.05;;;3.20;;
64244;SDS011;50584;29.058;-110.966;2022-08-21T06:13:11;5.00;;;3.35;;
64244;SDS011;50584;29.058;-110.966;2022-08-21T06:15:37;5.28;;;3.20;;
64244;SDS011;50584;29.058;-110.966;2022-08-21T06:18:03;5.38;;;3.95;;
64244;SDS011;50584;29.058;-110.966;2022-08-21T06:20:29;5.13;;;3.22;;
64244;SDS011;50584;29.058;-110.966;2022-08-21T06:22:55;5.90;;;3.38;;
64244;SDS011;50584;29.058;-110.966;2022-08-21T06:25:21;3.47;;;3.17;;
64244;SDS011;50584;29.058;-110.966;2022-08-21T06:27:46;4.30;;;3.20;;
64244;SDS011;50584;29.058;-110.966;2022-08-21T06:30:12;3.90;;;3.00;;
64244;SDS011;50584;29.058;-110.966;2022-08-21T06:32:38;3.95;;;3.58;;
64244;SDS011;50584;29.058;-110.966;2022-08-21T06:35:05;8.77;;;3.70;;
64244;SDS011;50584;29.058;-110.966;2022-08-21T06:37:31;4.22;;;3.63;;
64244;SDS011;50584;29.058;-110.966;2022-08-21T06:39:57;4.90;;;3.20;;
64244;SDS011;50584;29.058;-110.966;2022-08-21T06:42:23;6.50;;;3.58;;
64244;SDS011;50584;29.058;-110.966;2022-08-21T06:44:48;6.13;;;3.55;;
64244;SDS011;50584;29.058;-110.966;2022-08-21T06:47:14;4.32;;;2.95;;
64244;SDS011;50584;29.058;-110.966;2022-08-21T06:49:40;6.22;;;3.38;;
64244;SDS011;50584;29.058;-110.966;2022-08-21T06:52:10;7.72;;;3.00;;
64244;SDS011;50584;29.058;-110.966;2022-08-21T06:54:36;5.90;;;3.25;;
64244;SDS011;50584;29.058;-110.966;2022-08-21T06:57:02;13.57;;;3.90;;
64244;SDS011;50584;29.058;-110.966;2022-08-21T06:59:28;6.72;;;3.25;;
64244;SDS011;50584;29.058;-110.966;2022-08-21T07:01:54;4.18;;;3.25;;
64244;SDS011;50584;29.058;-110.966;2022-08-21T07:04:20;7.55;;;3.05;;
64244;SDS011;50584;29.058;-110.966;2022-08-21T07:06:46;5.10;;;2.97;;
64244;SDS011;50584;29.058;-110.966;2022-08-21T07:09:11;5.22;;;3.28;;
64244;SDS011;50584;29.058;-110.966;2022-08-21T07:11:37;3.10;;;2.70;;
64244;SDS011;50584;29.058;-110.966;2022-08-21T07:14:03;3.22;;;2.85;;
64244;SDS011;50584;29.058;-110.966;2022-08-21T07:16:29;7.05;;;3.10;;
64244;SDS011;50584;29.058;-110.966;2022-08-21T07:18:55;10.07;;;3.40;;
64244;SDS011;50584;29.058;-110.966;2022-08-21T07:21:21;7.57;;;3.40;;
64244;SDS011;50584;29.058;-110.966;2022-08-21T07:23:48;5.22;;;3.55;;
64244;SDS011;50584;29.058;-110.966;2022-08-21T07:26:15;8.32;;;2.78;;
64244;SDS011;50584;29.058;-110.966;2022-08-21T07:28:41;6.35;;;3.58;;
64244;SDS011;50584;29.058;-110.966;2022-08-21T07:31:08;4.43;;;2.97;;
64244;SDS011;50584;29.058;-110.966;2022-08-21T07:33:34;5.63;;;3.15;;
64244;SDS011;50584;29.058;-110.966;2022-08-21T07:36:00;5.53;;;2.72;;
64244;SDS011;50584;29.058;-110.966;2022-08-21T07:38:26;7.80;;;3.13;;
64244;SDS011;50584;29.058;-110.966;2022-08-21T07:40:52;5.88;;;3.72;;
64244;SDS011;50584;29.058;-110.966;2022-08-21T07:43:19;6.30;;;3.47;;
64244;SDS011;50584;29.058;-110.966;2022-08-21T07:45:47;4.60;;;3.22;;
64244;SDS011;50584;29.058;-110.966;2022-08-21T07:48:14;4.35;;;2.90;;
64244;SDS011;50584;29.058;-110.966;2022-08-21T07:50:40;4.50;;;2.97;;
64244;SDS011;50584;29.058;-110.966;2022-08-21T07:53:06;7.00;;;3.25;;
64244;SDS011;50584;29.058;-110.966;2022-08-21T07:55:32;3.63;;;3.20;;
64244;SDS011;50584;29.058;-110.966;2022-08-21T07:57:58;7.20;;;3.10;;
64244;SDS011;50584;29.058;-110.966;2022-08-21T08:00:25;16.00;;;3.40;;
64244;SDS011;50584;29.058;-110.966;2022-08-21T08:02:51;14.38;;;3.53;;
64244;SDS011;50584;29.058;-110.966;2022-08-21T08:05:19;8.73;;;3.47;;
64244;SDS011;50584;29.058;-110.966;2022-08-21T08:07:45;13.80;;;3.47;;
64244;SDS011;50584;29.058;-110.966;2022-08-21T08:10:11;8.25;;;3.30;;
64244;SDS011;50584;29.058;-110.966;2022-08-21T08:12:38;10.48;;;3.50;;
64244;SDS011;50584;29.058;-110.966;2022-08-21T08:15:06;18.25;;;3.70;;
64244;SDS011;50584;29.058;-110.966;2022-08-21T08:17:32;13.85;;;4.00;;
64244;SDS011;50584;29.058;-110.966;2022-08-21T08:19:58;14.60;;;3.60;;
64244;SDS011;50584;29.058;-110.966;2022-08-21T08:22:26;16.05;;;3.90;;
64244;SDS011;50584;29.058;-110.966;2022-08-21T08:24:52;10.50;;;3.38;;
64244;SDS011;50584;29.058;-110.966;2022-08-21T08:27:18;10.57;;;4.93;;
64244;SDS011;50584;29.058;-110.966;2022-08-21T08:29:44;9.15;;;3.53;;
64244;SDS011;50584;29.058;-110.966;2022-08-21T08:32:10;14.73;;;3.85;;
64244;SDS011;50584;29.058;-110.966;2022-08-21T08:34:36;8.35;;;3.55;;
64244;SDS011;50584;29.058;-110.966;2022-08-21T08:37:03;14.15;;;3.85;;
64244;SDS011;50584;29.058;-110.966;2022-08-21T08:39:29;7.25;;;3.28;;
64244;SDS011;50584;29.058;-110.966;2022-08-21T08:42:05;11.95;;;3.78;;
64244;SDS011;50584;29.058;-110.966;2022-08-21T08:44:31;7.63;;;3.72;;
64244;SDS011;50584;29.058;-110.966;2022-08-21T08:46:57;6.38;;;3.10;;
64244;SDS011;50584;29.058;-110.966;2022-08-21T08:49:24;7.60;;;3.55;;
64244;SDS011;50584;29.058;-110.966;2022-08-21T08:54:18;6.70;;;3.33;;
64244;SDS011;50584;29.058;-110.966;2022-08-21T08:56:45;9.88;;;3.88;;
64244;SDS011;50584;29.058;-110.966;2022-08-21T08:59:15;7.15;;;3.78;;
64244;SDS011;50584;29.058;-110.966;2022-08-21T09:01:43;4.53;;;3.67;;
64244;SDS011;50584;29.058;-110.966;2022-08-21T09:04:09;10.55;;;3.60;;
64244;SDS011;50584;29.058;-110.966;2022-08-21T09:09:19;4.30;;;3.20;;
64244;SDS011;50584;29.058;-110.966;2022-08-21T09:12:02;3.90;;;3.10;;
64244;SDS011;50584;29.058;-110.966;2022-08-21T09:15:30;5.75;;;3.53;;
64244;SDS011;50584;29.058;-110.966;2022-08-21T09:22:50;5.90;;;3.17;;
64244;SDS011;50584;29.058;-110.966;2022-08-21T09:25:26;6.20;;;3.50;;
64244;SDS011;50584;29.058;-110.966;2022-08-21T09:27:52;5.82;;;2.92;;
64244;SDS011;50584;29.058;-110.966;2022-08-21T09:30:18;5.20;;;3.83;;
64244;SDS011;50584;29.058;-110.966;2022-08-21T09:32:44;7.10;;;3.03;;
64244;SDS011;50584;29.058;-110.966;2022-08-21T09:35:12;13.82;;;3.50;;
64244;SDS011;50584;29.058;-110.966;2022-08-21T09:43:03;5.95;;;3.60;;
64244;SDS011;50584;29.058;-110.966;2022-08-21T09:45:29;5.65;;;3.17;;
64244;SDS011;50584;29.058;-110.966;2022-08-21T09:47:55;7.32;;;3.13;;
64244;SDS011;50584;29.058;-110.966;2022-08-21T09:50:22;4.07;;;3.22;;
64244;SDS011;50584;29.058;-110.966;2022-08-21T09:52:56;14.75;;;3.47;;
64244;SDS011;50584;29.058;-110.966;2022-08-21T09:55:30;4.25;;;3.00;;
64244;SDS011;50584;29.058;-110.966;2022-08-21T09:58:15;8.75;;;3.50;;
64244;SDS011;50584;29.058;-110.966;2022-08-21T10:00:42;5.40;;;3.35;;
64244;SDS011;50584;29.058;-110.966;2022-08-21T10:03:19;13.27;;;4.07;;
64244;SDS011;50584;29.058;-110.966;2022-08-21T10:06:05;7.05;;;3.72;;
64244;SDS011;50584;29.058;-110.966;2022-08-21T10:08:34;9.25;;;3.92;;
64244;SDS011;50584;29.058;-110.966;2022-08-21T10:11:13;5.47;;;3.20;;
64244;SDS011;50584;29.058;-110.966;2022-08-21T10:14:01;9.98;;;3.80;;
64244;SDS011;50584;29.058;-110.966;2022-08-21T10:19:31;5.43;;;3.30;;
64244;SDS011;50584;29.058;-110.966;2022-08-21T10:21:59;5.57;;;3.72;;
64244;SDS011;50584;29.058;-110.966;2022-08-21T10:24:44;3.70;;;3.40;;
64244;SDS011;50584;29.058;-110.966;2022-08-21T10:30:02;4.97;;;3.30;;
64244;SDS011;50584;29.058;-110.966;2022-08-21T10:37:39;5.03;;;3.55;;
64244;SDS011;50584;29.058;-110.966;2022-08-21T10:46:32;3.90;;;3.60;;
64244;SDS011;50584;29.058;-110.966;2022-08-21T10:48:39;4.95;;;3.65;;
64244;SDS011;50584;29.058;-110.966;2022-08-21T10:51:10;9.50;;;4.35;;
64244;SDS011;50584;29.058;-110.966;2022-08-21T10:53:47;5.72;;;3.50;;
64244;SDS011;50584;29.058;-110.966;2022-08-21T10:56:16;4.05;;;3.60;;
64244;SDS011;50584;29.058;-110.966;2022-08-21T10:59:26;5.47;;;3.63;;
64244;SDS011;50584;29.058;-110.966;2022-08-21T11:01:49;5.82;;;3.70;;
64244;SDS011;50584;29.058;-110.966;2022-08-21T11:06:46;5.18;;;3.63;;
64244;SDS011;50584;29.058;-110.966;2022-08-21T11:09:14;6.07;;;3.63;;
64244;SDS011;50584;29.058;-110.966;2022-08-21T11:19:30;5.78;;;3.97;;
64244;SDS011;50584;29.058;-110.966;2022-08-21T11:21:58;9.32;;;4.00;;
64244;SDS011;50584;29.058;-110.966;2022-08-21T11:29:48;6.10;;;3.88;;
64244;SDS011;50584;29.058;-110.966;2022-08-21T11:37:45;5.10;;;3.80;;
64244;SDS011;50584;29.058;-110.966;2022-08-21T11:45:32;9.50;;;4.90;;
64244;SDS011;50584;29.058;-110.966;2022-08-21T11:48:07;6.47;;;5.82;;
64244;SDS011;50584;29.058;-110.966;2022-08-21T11:50:36;6.05;;;5.55;;
64244;SDS011;50584;29.058;-110.966;2022-08-21T11:53:11;8.90;;;6.38;;
64244;SDS011;50584;29.058;-110.966;2022-08-21T11:55:41;5.97;;;5.03;;
64244;SDS011;50584;29.058;-110.966;2022-08-21T11:58:09;17.15;;;5.28;;
64244;SDS011;50584;29.058;-110.966;2022-08-21T12:00:42;7.53;;;4.55;;
64244;SDS011;50584;29.058;-110.966;2022-08-21T12:03:11;4.70;;;4.30;;
64244;SDS011;50584;29.058;-110.966;2022-08-21T12:05:40;5.32;;;3.97;;
64244;SDS011;50584;29.058;-110.966;2022-08-21T12:10:35;7.13;;;4.30;;
64244;SDS011;50584;29.058;-110.966;2022-08-21T12:13:08;5.30;;;4.05;;
64244;SDS011;50584;29.058;-110.966;2022-08-21T12:15:36;11.93;;;4.22;;
64244;SDS011;50584;29.058;-110.966;2022-08-21T12:18:04;5.93;;;3.65;;
64244;SDS011;50584;29.058;-110.966;2022-08-21T12:20:44;5.38;;;3.90;;
64244;SDS011;50584;29.058;-110.966;2022-08-21T12:28:23;5.03;;;3.78;;
64244;SDS011;50584;29.058;-110.966;2022-08-21T12:30:50;6.68;;;3.35;;
64244;SDS011;50584;29.058;-110.966;2022-08-21T12:33:23;5.32;;;3.10;;
64244;SDS011;50584;29.058;-110.966;2022-08-21T12:35:51;7.63;;;3.60;;
64244;SDS011;50584;29.058;-110.966;2022-08-21T12:38:28;5.68;;;3.05;;
64244;SDS011;50584;29.058;-110.966;2022-08-21T12:40:55;8.00;;;3.00;;
64244;SDS011;50584;29.058;-110.966;2022-08-21T12:43:34;8.90;;;3.10;;
64244;SDS011;50584;29.058;-110.966;2022-08-21T12:46:02;4.07;;;3.20;;
64244;SDS011;50584;29.058;-110.966;2022-08-21T12:48:41;3.65;;;3.00;;
64244;SDS011;50584;29.058;-110.966;2022-08-21T12:51:11;6.88;;;3.20;;
64244;SDS011;50584;29.058;-110.966;2022-08-21T12:53:56;3.83;;;2.97;;
64244;SDS011;50584;29.058;-110.966;2022-08-21T12:56:24;6.10;;;2.97;;
64244;SDS011;50584;29.058;-110.966;2022-08-21T12:58:53;5.22;;;2.92;;
64244;SDS011;50584;29.058;-110.966;2022-08-21T13:03:45;6.32;;;2.90;;
64244;SDS011;50584;29.058;-110.966;2022-08-21T13:06:15;4.30;;;2.72;;
64244;SDS011;50584;29.058;-110.966;2022-08-21T13:08:43;4.32;;;2.50;;
64244;SDS011;50584;29.058;-110.966;2022-08-21T13:11:09;6.65;;;3.15;;
64244;SDS011;50584;29.058;-110.966;2022-08-21T13:13:35;2.85;;;2.65;;
64244;SDS011;50584;29.058;-110.966;2022-08-21T13:16:05;4.70;;;2.42;;
64244;SDS011;50584;29.058;-110.966;2022-08-21T13:18:32;5.95;;;2.70;;
64244;SDS011;50584;29.058;-110.966;2022-08-21T13:21:11;4.35;;;2.65;;
64244;SDS011;50584;29.058;-110.966;2022-08-21T13:23:37;6.65;;;2.67;;
64244;SDS011;50584;29.058;-110.966;2022-08-21T13:29:05;4.57;;;2.50;;
64244;SDS011;50584;29.058;-110.966;2022-08-21T13:31:31;4.65;;;2.20;;
64244;SDS011;50584;29.058;-110.966;2022-08-21T13:33:58;5.57;;;2.42;;
64244;SDS011;50584;29.058;-110.966;2022-08-21T13:36:25;3.58;;;2.20;;
64244;SDS011;50584;29.058;-110.966;2022-08-21T13:38:52;2.75;;;2.35;;
64244;SDS011;50584;29.058;-110.966;2022-08-21T13:41:24;5.65;;;2.35;;
64244;SDS011;50584;29.058;-110.966;2022-08-21T13:43:56;2.38;;;2.17;;
64244;SDS011;50584;29.058;-110.966;2022-08-21T13:46:23;2.38;;;2.22;;
64244;SDS011;50584;29.058;-110.966;2022-08-21T13:48:50;3.90;;;1.98;;
64244;SDS011;50584;29.058;-110.966;2022-08-21T13:51:15;3.97;;;2.17;;
64244;SDS011;50584;29.058;-110.966;2022-08-21T13:56:20;2.67;;;2.13;;
64244;SDS011;50584;29.058;-110.966;2022-08-21T13:58:47;6.93;;;2.30;;
64244;SDS011;50584;29.058;-110.966;2022-08-21T14:01:23;2.10;;;2.00;;
64244;SDS011;50584;29.058;-110.966;2022-08-21T14:03:50;4.68;;;2.05;;
64244;SDS011;50584;29.058;-110.966;2022-08-21T14:06:18;3.53;;;1.98;;
64244;SDS011;50584;29.058;-110.966;2022-08-21T14:08:54;3.58;;;1.90;;
64244;SDS011;50584;29.058;-110.966;2022-08-21T14:11:20;2.20;;;2.00;;
64244;SDS011;50584;29.058;-110.966;2022-08-21T14:13:55;2.20;;;2.00;;
64244;SDS011;50584;29.058;-110.966;2022-08-21T14:16:23;2.00;;;1.80;;
64244;SDS011;50584;29.058;-110.966;2022-08-21T14:21:33;2.78;;;2.28;;
64244;SDS011;50584;29.058;-110.966;2022-08-21T14:24:04;3.15;;;2.20;;
64244;SDS011;50584;29.058;-110.966;2022-08-21T14:26:30;3.88;;;2.05;;
64244;SDS011;50584;29.058;-110.966;2022-08-21T14:28:59;2.08;;;1.88;;
64244;SDS011;50584;29.058;-110.966;2022-08-21T14:31:28;2.15;;;1.70;;
64244;SDS011;50584;29.058;-110.966;2022-08-21T14:33:54;1.95;;;1.80;;
64244;SDS011;50584;29.058;-110.966;2022-08-21T14:36:20;5.25;;;1.88;;
64244;SDS011;50584;29.058;-110.966;2022-08-21T14:38:46;2.40;;;1.83;;
64244;SDS011;50584;29.058;-110.966;2022-08-21T14:41:16;3.47;;;1.92;;
64244;SDS011;50584;29.058;-110.966;2022-08-21T14:46:08;2.10;;;1.90;;
64244;SDS011;50584;29.058;-110.966;2022-08-21T14:48:34;4.50;;;2.97;;
64244;SDS011;50584;29.058;-110.966;2022-08-21T14:51:00;3.15;;;1.98;;
64244;SDS011;50584;29.058;-110.966;2022-08-21T14:53:25;2.22;;;1.83;;
64244;SDS011;50584;29.058;-110.966;2022-08-21T14:55:51;8.35;;;2.10;;
64244;SDS011;50584;29.058;-110.966;2022-08-21T14:58:33;2.58;;;1.95;;
64244;SDS011;50584;29.058;-110.966;2022-08-21T15:01:00;1.98;;;1.85;;
64244;SDS011;50584;29.058;-110.966;2022-08-21T15:03:29;2.20;;;2.00;;
64244;SDS011;50584;29.058;-110.966;2022-08-21T15:05:55;1.77;;;1.67;;
64244;SDS011;50584;29.058;-110.966;2022-08-21T15:08:21;3.67;;;2.00;;
64244;SDS011;50584;29.058;-110.966;2022-08-21T15:10:46;4.45;;;1.95;;
64244;SDS011;50584;29.058;-110.966;2022-08-21T15:13:12;2.53;;;1.80;;
64244;SDS011;50584;29.058;-110.966;2022-08-21T15:15:40;3.55;;;2.00;;
64244;SDS011;50584;29.058;-110.966;2022-08-21T15:18:06;2.60;;;1.83;;
64244;SDS011;50584;29.058;-110.966;2022-08-21T15:20:31;1.75;;;1.65;;
64244;SDS011;50584;29.058;-110.966;2022-08-21T15:22:57;2.72;;;2.03;;
64244;SDS011;50584;29.058;-110.966;2022-08-21T15:25:23;2.05;;;1.92;;
64244;SDS011;50584;29.058;-110.966;2022-08-21T15:27:49;2.15;;;1.92;;
64244;SDS011;50584;29.058;-110.966;2022-08-21T15:30:15;2.60;;;1.90;;
64244;SDS011;50584;29.058;-110.966;2022-08-21T15:32:42;6.50;;;2.08;;
64244;SDS011;50584;29.058;-110.966;2022-08-21T15:35:08;2.92;;;2.20;;
64244;SDS011;50584;29.058;-110.966;2022-08-21T15:37:34;4.63;;;2.20;;